Time;durP1;ratioP1;P1;durP2;ratioP2;P2;SDS_P1;SDS_P2;PMS_P1;PMS_P2;Temp;Humidity;BMP_temperature;BMP_pressure;BME280_temperature;BME280_humidity;BME280_pressure;Samples;Min_cycle;Max_cycle;Signal;HPM_P1;HPM_P2
2022/08/30 00:01:14;;;;;;;0.98;0.80;;;17.90;99.90;;;;;;5051377;28;20104;-74
2022/08/30 00:03:45;;;;;;;0.20;0.20;;;18.00;99.90;;;;;;5055227;28;20370;-74
2022/08/30 00:06:13;;;;;;;0.10;0.10;;;18.00;99.90;;;;;;5055049;28;20021;-74
2022/08/30 00:08:40;;;;;;;1.05;0.63;;;18.10;99.90;;;;;;5053928;28;20082;-74
2022/08/30 00:11:09;;;;;;;0.10;0.10;;;18.10;99.90;;;;;;5037289;28;20119;-74
2022/08/30 00:13:36;;;;;;;0.10;0.10;;;18.10;99.90;;;;;;5055101;28;20391;-74
2022/08/30 00:16:05;;;;;;;1.52;0.40;;;18.00;99.90;;;;;;5054818;28;20024;-74
2022/08/30 00:18:32;;;;;;;0.10;0.10;;;18.20;99.90;;;;;;5053873;28;20033;-74
2022/08/30 00:20:58;;;;;;;0.20;0.20;;;18.20;99.90;;;;;;5054832;28;20036;-74
2022/08/30 00:23:24;;;;;;;0.10;0.10;;;18.10;99.90;;;;;;5054826;28;20029;-74
2022/08/30 00:25:51;;;;;;;1.08;0.75;;;18.10;99.90;;;;;;5054752;28;20017;-74
2022/08/30 00:28:17;;;;;;;0.10;0.10;;;18.20;99.90;;;;;;5053587;28;20021;-74
2022/08/30 00:30:45;;;;;;;0.10;0.10;;;18.20;99.90;;;;;;5054775;28;20542;-74
2022/08/30 00:33:12;;;;;;;0.60;0.60;;;18.20;99.90;;;;;;5053488;28;20025;-74
2022/08/30 00:35:38;;;;;;;0.20;0.20;;;18.10;99.90;;;;;;5054633;28;20036;-74
2022/08/30 00:38:06;;;;;;;0.20;0.20;;;17.80;99.90;;;;;;5054323;28;20036;-74
2022/08/30 00:40:32;;;;;;;0.38;0.38;;;17.60;99.90;;;;;;5054428;28;20070;-74
2022/08/30 00:43:02;;;;;;;0.98;0.90;;;17.40;99.90;;;;;;5053184;28;20388;-74
2022/08/30 00:45:32;;;;;;;2.33;1.60;;;17.30;99.90;;;;;;5054339;28;20100;-74
2022/08/30 00:47:58;;;;;;;0.10;0.10;;;17.30;99.90;;;;;;5036398;28;20361;-74
2022/08/30 00:50:31;;;;;;;0.10;0.10;;;17.40;99.90;;;;;;5054381;28;20491;-74
2022/08/30 00:53:00;;;;;;;0.10;0.10;;;17.50;99.90;;;;;;5054214;28;20036;-74
2022/08/30 00:55:27;;;;;;;0.10;0.10;;;17.60;99.90;;;;;;5052787;28;20036;-74
2022/08/30 00:57:57;;;;;;;0.10;0.10;;;17.70;99.90;;;;;;5054335;28;20100;-74
2022/08/30 01:00:23;;;;;;;0.22;0.22;;;17.80;99.90;;;;;;5036194;28;20420;-74
2022/08/30 01:02:49;;;;;;;8.00;2.40;;;18.00;99.90;;;;;;5036098;28;20074;-74
2022/08/30 01:05:15;;;;;;;0.20;0.20;;;17.90;99.90;;;;;;5053971;28;20108;-74
2022/08/30 01:07:41;;;;;;;0.10;0.10;;;17.70;99.90;;;;;;5036057;28;20060;-74
2022/08/30 01:10:10;;;;;;;0.15;0.15;;;17.80;99.90;;;;;;5052822;28;20021;-74
2022/08/30 01:12:38;;;;;;;0.10;0.10;;;17.70;99.90;;;;;;5019186;28;20082;-74
2022/08/30 01:15:05;;;;;;;0.10;0.10;;;17.60;99.90;;;;;;5053203;28;20025;-74
2022/08/30 01:17:31;;;;;;;0.30;0.30;;;17.50;99.90;;;;;;5053928;28;20031;-74
2022/08/30 01:20:00;;;;;;;0.80;0.30;;;17.50;99.90;;;;;;5035724;28;20101;-74
2022/08/30 01:22:41;;;;;;;0.10;0.10;;;17.40;99.90;;;;;;5035579;28;20122;-73
2022/08/30 01:25:10;;;;;;;0.10;0.10;;;17.40;99.90;;;;;;5053556;28;20017;-73
2022/08/30 01:27:40;;;;;;;0.10;0.10;;;17.40;99.90;;;;;;5035698;28;20110;-74
2022/08/30 01:30:07;;;;;;;0.85;0.55;;;17.40;99.90;;;;;;5053633;28;20446;-74
2022/08/30 01:32:38;;;;;;;0.10;0.10;;;17.30;99.90;;;;;;5035616;28;20025;-74
2022/08/30 01:35:05;;;;;;;0.10;0.10;;;17.30;99.90;;;;;;5053302;28;20471;-74
2022/08/30 01:37:32;;;;;;;0.10;0.10;;;17.30;99.90;;;;;;5035488;28;20423;-74
2022/08/30 01:39:59;;;;;;;0.10;0.10;;;17.40;99.90;;;;;;5035349;28;20036;-74
2022/08/30 01:42:25;;;;;;;0.10;0.10;;;17.40;99.90;;;;;;5053376;28;20418;-74
2022/08/30 01:44:50;;;;;;;0.10;0.10;;;17.40;99.90;;;;;;5035281;28;20028;-74
2022/08/30 01:47:17;;;;;;;0.10;0.10;;;17.30;99.90;;;;;;5052997;28;20032;-74
2022/08/30 01:49:45;;;;;;;0.10;0.10;;;17.20;99.90;;;;;;5019193;28;20029;-74
2022/08/30 01:52:11;;;;;;;0.10;0.10;;;17.30;99.90;;;;;;5053313;28;20021;-74
2022/08/30 01:54:39;;;;;;;0.68;0.40;;;17.40;99.90;;;;;;5053091;28;20107;-74
2022/08/30 01:57:07;;;;;;;0.20;0.17;;;17.30;99.90;;;;;;5035101;28;20097;-74
2022/08/30 01:59:33;;;;;;;0.10;0.10;;;17.20;99.90;;;;;;5052866;28;20068;-74
2022/08/30 02:01:59;;;;;;;0.03;0.03;;;17.10;99.90;;;;;;5052990;28;20024;-74
2022/08/30 02:04:25;;;;;;;0.10;0.10;;;16.90;99.90;;;;;;5035395;28;20028;-74
2022/08/30 02:06:52;;;;;;;0.10;0.10;;;16.80;99.90;;;;;;5051563;28;20361;-74
2022/08/30 02:09:18;;;;;;;0.10;0.10;;;16.70;99.90;;;;;;5052826;28;20028;-74
2022/08/30 02:11:44;;;;;;;0.10;0.10;;;16.60;99.90;;;;;;5034872;28;20110;-74
2022/08/30 02:14:10;;;;;;;0.08;0.08;;;16.60;99.90;;;;;;5052706;28;20425;-74
2022/08/30 02:16:36;;;;;;;0.10;0.10;;;16.70;99.90;;;;;;5034768;28;20112;-74
2022/08/30 02:19:02;;;;;;;0.10;0.10;;;16.80;99.90;;;;;;5034822;28;20100;-74
2022/08/30 02:21:28;;;;;;;0.10;0.10;;;16.80;99.90;;;;;;5052494;28;20021;-74
2022/08/30 02:23:54;;;;;;;0.10;0.10;;;16.80;99.90;;;;;;5052644;28;20546;-74
2022/08/30 02:26:20;;;;;;;0.10;0.10;;;16.80;99.90;;;;;;5052866;28;20043;-73
2022/08/30 02:28:47;;;;;;;0.45;0.45;;;16.80;99.90;;;;;;5052461;28;20447;-74
2022/08/30 02:31:13;;;;;;;0.50;0.50;;;16.80;99.90;;;;;;5052581;28;20451;-74
2022/08/30 02:33:38;;;;;;;0.52;0.30;;;16.70;99.90;;;;;;5052480;28;20037;-74
2022/08/30 02:36:05;;;;;;;0.10;0.10;;;16.80;99.90;;;;;;5052229;28;20029;-74
2022/08/30 02:38:31;;;;;;;0.10;0.10;;;16.80;99.90;;;;;;5052360;28;20055;-74
2022/08/30 02:40:57;;;;;;;0.10;0.10;;;16.70;99.90;;;;;;5052281;28;20021;-74
2022/08/30 02:43:23;;;;;;;0.10;0.10;;;16.70;99.90;;;;;;5052139;28;20115;-74
2022/08/30 02:45:49;;;;;;;0.10;0.10;;;16.60;99.90;;;;;;5052105;28;20072;-74
2022/08/30 02:48:15;;;;;;;0.22;0.22;;;16.70;99.90;;;;;;5052131;28;20021;-74
2022/08/30 02:50:42;;;;;;;0.63;0.47;;;16.70;99.90;;;;;;5034223;28;20102;-74
2022/08/30 02:53:09;;;;;;;0.75;0.25;;;16.60;99.90;;;;;;5052005;28;20029;-74
2022/08/30 02:55:35;;;;;;;0.47;0.40;;;16.70;99.90;;;;;;5050789;28;20029;-74
2022/08/30 02:58:01;;;;;;;0.05;0.05;;;16.60;99.90;;;;;;5034287;28;20031;-74
2022/08/30 03:00:27;;;;;;;0.17;0.17;;;16.50;99.90;;;;;;5017693;28;20053;-74
2022/08/30 03:02:53;;;;;;;0.10;0.10;;;16.40;99.90;;;;;;5051958;28;20472;-74
2022/08/30 03:05:19;;;;;;;0.98;0.82;;;16.30;99.90;;;;;;5034035;28;20528;-74
2022/08/30 03:07:46;;;;;;;0.10;0.10;;;16.20;99.90;;;;;;5051885;28;20013;-74
2022/08/30 03:10:14;;;;;;;0.10;0.10;;;16.10;99.90;;;;;;5051994;28;20037;-74
2022/08/30 03:12:41;;;;;;;1.55;1.38;;;16.10;99.90;;;;;;5051779;28;20055;-74
2022/08/30 03:15:08;;;;;;;0.03;0.03;;;16.00;99.90;;;;;;5051818;28;20028;-74
2022/08/30 03:17:34;;;;;;;0.45;0.17;;;16.10;99.90;;;;;;5051867;28;20128;-74
2022/08/30 03:20:01;;;;;;;0.30;0.30;;;16.20;99.90;;;;;;5033730;28;20082;-74
2022/08/30 03:22:27;;;;;;;0.63;0.63;;;16.20;99.90;;;;;;5033619;28;20028;-74
2022/08/30 03:24:58;;;;;;;0.52;0.35;;;16.30;99.90;;;;;;5033861;28;20075;-74
2022/08/30 03:27:24;;;;;;;0.43;0.43;;;16.30;99.90;;;;;;5017557;28;20056;-74
2022/08/30 03:29:50;;;;;;;0.10;0.10;;;16.40;99.90;;;;;;5051772;28;20033;-74
2022/08/30 03:32:16;;;;;;;0.00;0.00;;;16.40;99.90;;;;;;5033851;28;20092;-74
2022/08/30 03:34:42;;;;;;;0.10;0.10;;;16.40;99.90;;;;;;5033712;28;20373;-74
2022/08/30 03:37:08;;;;;;;0.10;0.10;;;16.40;99.90;;;;;;5035339;28;20079;-74
2022/08/30 03:39:34;;;;;;;0.32;0.32;;;16.50;99.90;;;;;;5055655;28;20025;-74
2022/08/30 03:42:00;;;;;;;0.10;0.10;;;16.70;99.90;;;;;;5055643;28;20017;-74
2022/08/30 03:44:26;;;;;;;0.10;0.10;;;16.60;99.90;;;;;;5021238;28;20032;-74
2022/08/30 03:46:52;;;;;;;0.73;0.73;;;16.60;99.90;;;;;;5055384;28;20021;-74
2022/08/30 03:49:18;;;;;;;0.22;0.22;;;16.60;99.90;;;;;;5055383;28;20013;-74
2022/08/30 03:51:44;;;;;;;0.35;0.35;;;16.50;99.90;;;;;;5037537;28;20028;-74
2022/08/30 03:54:10;;;;;;;0.20;0.20;;;16.50;99.90;;;;;;5055459;28;20086;-74
2022/08/30 03:56:36;;;;;;;0.10;0.10;;;16.50;99.90;;;;;;5055417;28;20398;-74
2022/08/30 03:59:02;;;;;;;0.10;0.10;;;16.60;99.90;;;;;;5055586;28;20021;-74
2022/08/30 04:01:28;;;;;;;0.03;0.03;;;16.60;99.90;;;;;;5053932;28;20037;-74
2022/08/30 04:03:55;;;;;;;0.10;0.10;;;16.50;99.90;;;;;;5037469;28;20028;-74
2022/08/30 04:06:21;;;;;;;0.00;0.00;;;16.70;99.90;;;;;;5055260;28;20029;-74
2022/08/30 04:08:47;;;;;;;0.10;0.10;;;16.60;99.90;;;;;;5037249;28;20017;-74
2022/08/30 04:11:16;;;;;;;1.65;0.68;;;16.60;99.90;;;;;;5055145;28;20028;-74
2022/08/30 04:13:42;;;;;;;0.32;0.32;;;16.60;99.90;;;;;;5055527;28;20381;-74
2022/08/30 04:16:09;;;;;;;0.30;0.30;;;16.50;99.90;;;;;;5053763;28;20032;-74
2022/08/30 04:18:35;;;;;;;0.10;0.10;;;16.40;99.90;;;;;;5055121;28;20646;-74
2022/08/30 04:21:03;;;;;;;0.20;0.20;;;16.30;99.90;;;;;;5074671;23;20048;-75
2022/08/30 04:23:29;;;;;;;0.10;0.10;;;16.30;99.90;;;;;;5056773;28;20016;-75
2022/08/30 04:25:55;;;;;;;0.28;0.28;;;16.40;99.90;;;;;;5074925;28;20020;-75
2022/08/30 04:28:21;;;;;;;0.10;0.10;;;16.40;99.90;;;;;;5074942;28;20033;-75
2022/08/30 04:30:47;;;;;;;1.00;0.73;;;16.50;99.90;;;;;;5056822;28;20052;-75
2022/08/30 04:33:14;;;;;;;0.90;0.60;;;16.50;99.90;;;;;;5074681;28;20079;-75
2022/08/30 04:35:43;;;;;;;0.20;0.20;;;16.40;99.90;;;;;;5040402;28;20127;-75
2022/08/30 04:38:10;;;;;;;2.38;1.25;;;16.30;99.90;;;;;;5074646;28;20442;-75
2022/08/30 04:40:36;;;;;;;0.63;0.63;;;16.00;99.90;;;;;;5074533;28;20020;-72
2022/08/30 04:43:03;;;;;;;1.23;0.90;;;15.80;99.90;;;;;;5074522;28;20016;-73
2022/08/30 04:45:28;;;;;;;0.25;0.25;;;15.80;99.90;;;;;;5074461;28;20078;-75
2022/08/30 04:47:54;;;;;;;0.10;0.10;;;15.90;99.90;;;;;;5055525;28;20021;-73
2022/08/30 04:50:20;;;;;;;2.58;0.55;;;15.90;99.90;;;;;;5074265;28;20036;-75
2022/08/30 04:52:46;;;;;;;0.10;0.10;;;15.90;99.90;;;;;;5074343;28;20095;-75
2022/08/30 04:55:13;;;;;;;0.10;0.10;;;15.90;99.90;;;;;;5056373;28;20035;-75
2022/08/30 04:57:39;;;;;;;0.30;0.30;;;16.00;99.90;;;;;;5074286;28;20028;-74
2022/08/30 05:00:09;;;;;;;0.10;0.10;;;16.10;99.90;;;;;;5056299;28;20029;-75
2022/08/30 05:02:36;;;;;;;2.70;1.67;;;16.10;99.90;;;;;;5056386;28;20029;-73
2022/08/30 05:07:47;;;;;;;2.20;1.92;;;16.00;99.90;;;;;;5074079;28;20020;-75
2022/08/30 05:10:13;;;;;;;0.52;0.52;;;15.90;99.90;;;;;;5074071;28;20484;-73
2022/08/30 05:12:39;;;;;;;0.38;0.38;;;16.00;99.90;;;;;;5039384;28;20033;-73
2022/08/30 05:15:06;;;;;;;0.30;0.30;;;16.00;99.90;;;;;;5073959;28;20388;-75
2022/08/30 05:17:31;;;;;;;1.00;0.90;;;16.10;99.90;;;;;;5055915;28;20090;-75
2022/08/30 05:19:59;;;;;;;2.40;0.60;;;16.10;99.90;;;;;;5073699;28;20130;-74
2022/08/30 05:22:25;;;;;;;0.15;0.15;;;16.10;99.90;;;;;;5073839;28;20024;-75
2022/08/30 05:24:51;;;;;;;0.10;0.10;;;16.20;99.90;;;;;;5039263;28;20415;-72
2022/08/30 05:27:17;;;;;;;0.00;0.00;;;16.10;99.90;;;;;;5073842;28;20380;-75
2022/08/30 05:29:43;;;;;;;1.25;1.15;;;16.20;99.90;;;;;;5055759;28;20048;-75
2022/08/30 05:32:09;;;;;;;0.10;0.10;;;16.40;99.90;;;;;;5073700;28;20048;-75
2022/08/30 05:34:35;;;;;;;0.10;0.10;;;16.60;99.90;;;;;;5073528;28;20082;-75
2022/08/30 05:37:01;;;;;;;0.10;0.10;;;16.90;99.90;;;;;;5073626;28;20025;-75
2022/08/30 05:39:28;;;;;;;0.00;0.00;;;17.00;99.90;;;;;;5038943;28;20028;-75
2022/08/30 05:41:58;;;;;;;0.30;0.30;;;16.90;99.90;;;;;;5038645;28;20029;-75
2022/08/30 05:44:24;;;;;;;0.20;0.20;;;16.90;99.90;;;;;;5073706;28;20031;-75
2022/08/30 05:46:50;;;;;;;2.55;1.55;;;16.90;99.90;;;;;;5073177;28;20021;-75
2022/08/30 05:49:16;;;;;;;0.63;0.63;;;16.90;99.90;;;;;;5073208;28;20458;-75
2022/08/30 05:51:42;;;;;;;2.40;2.20;;;16.90;99.90;;;;;;5055201;28;20120;-75
2022/08/30 05:54:08;;;;;;;0.85;0.85;;;16.90;99.90;;;;;;5073164;28;20503;-75
2022/08/30 05:56:36;;;;;;;0.55;0.52;;;16.90;99.90;;;;;;5073043;28;20025;-75
2022/08/30 05:59:04;;;;;;;0.47;0.47;;;16.90;99.90;;;;;;5038207;28;20028;-75
2022/08/30 06:01:31;;;;;;;0.10;0.10;;;17.00;99.90;;;;;;5072812;28;20040;-75
2022/08/30 06:03:59;;;;;;;0.00;0.00;;;17.10;99.90;;;;;;5073002;28;20026;-75
2022/08/30 06:06:27;;;;;;;0.08;0.08;;;17.20;99.90;;;;;;5055163;28;20021;-75
2022/08/30 06:08:53;;;;;;;0.10;0.10;;;17.40;99.90;;;;;;5072957;28;20035;-75
2022/08/30 06:11:21;;;;;;;0.10;0.10;;;17.60;99.90;;;;;;5072892;28;20030;-75
2022/08/30 06:13:48;;;;;;;0.10;0.10;;;17.80;99.90;;;;;;5072828;28;20122;-75
2022/08/30 06:16:16;;;;;;;0.10;0.10;;;18.20;99.90;;;;;;5054758;28;20051;-75
2022/08/30 06:18:42;;;;;;;0.03;0.03;;;18.40;99.90;;;;;;5072811;28;20031;-75
2022/08/30 06:21:14;;;;;;;1.85;1.27;;;18.40;99.90;;;;;;5072495;28;20066;-75
2022/08/30 06:23:40;;;;;;;0.00;0.00;;;18.40;99.90;;;;;;5072715;28;20094;-75
2022/08/30 06:26:06;;;;;;;0.10;0.10;;;18.50;99.90;;;;;;5072642;28;20114;-75
2022/08/30 06:28:33;;;;;;;0.10;0.10;;;18.60;99.90;;;;;;5072509;28;20379;-75
2022/08/30 06:30:59;;;;;;;0.00;0.00;;;18.70;99.90;;;;;;5054983;28;20056;-75
2022/08/30 06:33:25;;;;;;;1.02;0.63;;;18.80;99.90;;;;;;5072370;28;20048;-74
2022/08/30 06:35:50;;;;;;;0.03;0.03;;;18.80;99.90;;;;;;5037833;28;20387;-75
2022/08/30 06:38:16;;;;;;;0.20;0.20;;;18.90;99.90;;;;;;5072397;28;20035;-75
2022/08/30 06:40:42;;;;;;;0.00;0.00;;;19.00;99.90;;;;;;5072360;28;20053;-75
2022/08/30 06:43:08;;;;;;;0.00;0.00;;;19.00;99.90;;;;;;5072303;28;20395;-75
2022/08/30 06:45:34;;;;;;;0.43;0.38;;;19.10;99.90;;;;;;5072197;28;20024;-75
2022/08/30 06:48:01;;;;;;;0.00;0.00;;;19.20;99.90;;;;;;5054077;28;20612;-76
2022/08/30 06:50:27;;;;;;;1.05;0.95;;;19.30;99.90;;;;;;5070241;28;20040;-75
2022/08/30 06:52:53;;;;;;;0.00;0.00;;;19.40;99.90;;;;;;5072057;28;20028;-75
2022/08/30 06:55:19;;;;;;;0.10;0.10;;;19.50;99.90;;;;;;5054064;28;20024;-75
2022/08/30 06:57:45;;;;;;;0.10;0.10;;;19.50;99.90;;;;;;5072065;28;20024;-75
2022/08/30 07:00:14;;;;;;;0.08;0.08;;;19.50;99.90;;;;;;5072089;28;20099;-79
2022/08/30 07:02:40;;;;;;;0.00;0.00;;;19.60;99.90;;;;;;5071764;28;20035;-77
2022/08/30 07:05:09;;;;;;;0.10;0.10;;;19.70;99.90;;;;;;5037352;28;20028;-76
2022/08/30 07:07:35;;;;;;;0.05;0.05;;;19.80;99.90;;;;;;5072106;28;20034;-77
2022/08/30 07:10:06;;;;;;;0.10;0.10;;;19.80;99.90;;;;;;5054088;28;20111;-77
2022/08/30 07:12:32;;;;;;;0.98;0.98;;;19.90;99.90;;;;;;5071190;28;20048;-77
2022/08/30 07:14:58;;;;;;;0.10;0.10;;;20.00;99.90;;;;;;5037494;28;20090;-77
2022/08/30 07:20:09;;;;;;;0.10;0.10;;;20.10;99.90;;;;;;5053797;28;20116;-78
2022/08/30 07:22:34;;;;;;;0.10;0.10;;;20.20;99.90;;;;;;5037345;28;20024;-77
2022/08/30 07:25:01;;;;;;;0.10;0.10;;;20.30;99.90;;;;;;5071763;28;20375;-77
2022/08/30 07:27:26;;;;;;;0.10;0.10;;;20.30;99.90;;;;;;5053830;28;20021;-78
2022/08/30 07:29:52;;;;;;;0.30;0.30;;;20.50;99.90;;;;;;5071800;28;20036;-77
2022/08/30 07:32:18;;;;;;;0.00;0.00;;;20.60;99.90;;;;;;5071705;28;20031;-77
2022/08/30 07:34:44;;;;;;;0.47;0.47;;;20.70;99.90;;;;;;5053491;28;20021;-77
2022/08/30 07:37:09;;;;;;;0.03;0.03;;;20.80;99.90;;;;;;5053720;28;20070;-77
2022/08/30 07:39:35;;;;;;;0.00;0.00;;;20.90;99.90;;;;;;5071834;28;20533;-77
2022/08/30 07:42:01;;;;;;;0.10;0.10;;;21.00;99.90;;;;;;5053681;28;20500;-77
2022/08/30 07:44:27;;;;;;;0.08;0.08;;;21.20;99.90;;;;;;5053787;28;20070;-78
2022/08/30 07:46:53;;;;;;;0.45;0.45;;;21.40;99.90;;;;;;5053776;28;20086;-77
2022/08/30 07:49:19;;;;;;;0.73;0.73;;;21.50;99.90;;;;;;5071543;28;20533;-77
2022/08/30 07:51:44;;;;;;;0.45;0.45;;;21.70;99.90;;;;;;5071228;28;20052;-77
2022/08/30 07:54:11;;;;;;;0.22;0.22;;;21.90;99.90;;;;;;5071526;28;20066;-78
2022/08/30 07:56:36;;;;;;;0.52;0.52;;;22.00;99.90;;;;;;5036884;28;20074;-77
2022/08/30 07:59:03;;;;;;;0.10;0.10;;;22.10;99.90;;;;;;5071369;28;20055;-77
2022/08/30 08:01:29;;;;;;;0.10;0.10;;;22.10;99.90;;;;;;5053432;28;20048;-78
2022/08/30 08:03:55;;;;;;;0.32;0.32;;;22.20;99.90;;;;;;5071277;28;20383;-78
2022/08/30 08:06:22;;;;;;;1.00;0.55;;;22.40;99.90;;;;;;5053567;28;20021;-77
2022/08/30 08:08:49;;;;;;;0.00;0.00;;;22.50;99.90;;;;;;5053607;28;20052;-77
2022/08/30 08:11:21;;;;;;;0.43;0.43;;;22.50;99.90;;;;;;5053358;28;20024;-77
2022/08/30 08:13:48;;;;;;;0.40;0.40;;;22.50;99.90;;;;;;5071266;28;20433;-77
2022/08/30 08:16:14;;;;;;;1.45;0.30;;;22.70;99.90;;;;;;5071325;28;20039;-78
2022/08/30 08:18:40;;;;;;;0.05;0.05;;;22.80;99.90;;;;;;5071354;28;20020;-77
2022/08/30 08:21:05;;;;;;;0.00;0.00;;;23.00;99.90;;;;;;5053146;28;20032;-77
2022/08/30 08:23:31;;;;;;;0.10;0.10;;;23.10;99.90;;;;;;5055530;28;20115;-77
2022/08/30 08:25:57;;;;;;;0.73;0.63;;;23.20;99.90;;;;;;5056936;28;20028;-77
2022/08/30 08:28:23;;;;;;;0.00;0.00;;;23.30;99.90;;;;;;5056856;28;20029;-77
2022/08/30 08:30:49;;;;;;;0.45;0.45;;;23.40;99.90;;;;;;5056952;28;20028;-77
2022/08/30 08:33:16;;;;;;;1.02;0.80;;;23.50;99.90;;;;;;5074741;28;20029;-77
2022/08/30 08:35:42;;;;;;;0.00;0.00;;;23.40;99.90;;;;;;5074873;28;20030;-78
2022/08/30 08:38:08;;;;;;;0.28;0.28;;;23.60;99.90;;;;;;5056891;28;20044;-77
2022/08/30 08:40:42;;;;;;;0.00;0.00;;;23.70;99.90;;;;;;5074715;28;20047;-77
2022/08/30 08:43:16;;;;;;;0.00;0.00;;;24.00;99.90;;;;;;5056800;28;20032;-78
2022/08/30 08:45:58;;;;;;;0.00;0.00;;;24.10;99.90;;;;;;5056556;28;20025;-77
2022/08/30 08:48:42;;;;;;;0.20;0.20;;;24.10;99.90;;;;;;5074577;28;20484;-78
2022/08/30 08:54:24;;;;;;;0.90;0.65;;;24.30;99.90;;;;;;5056390;28;20033;-78
2022/08/30 08:56:50;;;;;;;0.22;0.22;;;24.30;99.90;;;;;;5056700;28;20020;-78
2022/08/30 08:59:16;;;;;;;0.10;0.10;;;24.60;99.90;;;;;;5074667;28;20028;-77
2022/08/30 09:01:42;;;;;;;0.00;0.00;;;24.90;99.90;;;;;;5056805;28;20499;-78
2022/08/30 09:04:16;;;;;;;0.08;0.08;;;25.10;99.90;;;;;;5074548;28;20021;-77
2022/08/30 09:06:59;;;;;;;2.75;0.35;;;25.20;99.90;;;;;;5040139;28;20021;-77
2022/08/30 09:09:30;;;;;;;1.55;1.33;;;25.40;98.50;;;;;;5057431;28;20023;-77
2022/08/30 09:11:56;;;;;;;0.00;0.00;;;25.50;98.80;;;;;;5056785;28;20029;-77
2022/08/30 09:14:25;;;;;;;0.28;0.28;;;25.50;97.00;;;;;;5040476;28;20024;-77
2022/08/30 09:17:07;;;;;;;3.20;2.63;;;25.90;96.80;;;;;;5057176;28;20032;-77
2022/08/30 09:19:41;;;;;;;0.00;0.00;;;26.40;95.10;;;;;;5075723;28;20021;-77
2022/08/30 09:22:48;;;;;;;1.92;1.65;;;26.70;94.90;;;;;;5057327;28;20503;-77
2022/08/30 09:25:29;;;;;;;0.65;0.65;;;26.50;93.40;;;;;;5053663;28;20502;-78
2022/08/30 09:28:11;;;;;;;0.00;0.00;;;26.70;92.70;;;;;;5075413;28;20023;-77
2022/08/30 09:30:38;;;;;;;1.33;0.32;;;27.00;91.10;;;;;;5058128;28;20051;-77
2022/08/30 09:33:18;;;;;;;0.20;0.20;;;27.20;86.50;;;;;;5041268;28;20504;-77
2022/08/30 09:35:49;;;;;;;0.20;0.20;;;27.40;88.10;;;;;;5057685;28;20025;-77
2022/08/30 09:38:21;;;;;;;0.32;0.15;;;27.60;88.90;;;;;;5057090;28;20078;-77
2022/08/30 09:40:49;;;;;;;2.90;1.63;;;27.40;86.10;;;;;;5076081;28;20029;-77
2022/08/30 09:43:15;;;;;;;0.57;0.57;;;27.50;84.70;;;;;;5075178;28;20324;-78
2022/08/30 09:45:45;;;;;;;0.00;0.00;;;27.60;82.00;;;;;;5074989;28;20096;-77
2022/08/30 09:48:28;;;;;;;0.00;0.00;;;27.50;82.00;;;;;;5075092;28;20392;-77
2022/08/30 09:51:08;;;;;;;0.22;0.22;;;27.80;81.40;;;;;;5057161;28;20107;-78
2022/08/30 09:53:43;;;;;;;1.20;1.00;;;28.30;79.00;;;;;;5056763;28;20024;-77
2022/08/30 09:56:35;;;;;;;1.15;0.88;;;28.60;76.20;;;;;;5075465;28;20395;-77
2022/08/30 09:59:29;;;;;;;0.47;0.47;;;28.60;76.00;;;;;;5046284;28;20036;-78
2022/08/30 10:02:09;;;;;;;0.00;0.00;;;28.60;75.40;;;;;;5074696;28;20090;-77
2022/08/30 10:05:01;;;;;;;0.67;0.67;;;28.60;74.20;;;;;;5073212;28;20044;-75
2022/08/30 10:07:51;;;;;;;0.05;0.05;;;29.00;70.80;;;;;;5073057;28;20029;-75
2022/08/30 10:10:36;;;;;;;0.25;0.25;;;29.30;70.50;;;;;;5072888;28;20495;-75
2022/08/30 10:13:23;;;;;;;0.00;0.00;;;29.30;67.10;;;;;;5055100;28;20052;-75
2022/08/30 10:16:17;;;;;;;2.65;1.83;;;29.40;65.90;;;;;;5054923;28;20036;-75
2022/08/30 10:18:49;;;;;;;2.92;0.98;;;29.40;65.00;;;;;;5072741;28;20024;-76
2022/08/30 10:43:33;;;;;;;1.92;1.48;;;29.60;67.90;;;;;;5058750;28;20045;-92
2022/08/30 10:47:03;;;;;;;3.72;0.57;;;29.60;68.00;;;;;;5036227;28;20041;-90
2022/08/30 10:50:23;;;;;;;0.10;0.10;;;29.60;68.30;;;;;;5054117;28;20115;-91
2022/08/30 11:04:45;;;;;;;0.25;0.25;;;30.70;66.00;;;;;;4964842;28;20116;-91
2022/08/30 11:11:30;;;;;;;1.20;0.75;;;30.10;61.20;;;;;;4934347;29;20031;-91
2022/08/30 11:18:32;;;;;;;0.95;0.80;;;30.30;58.00;;;;;;4939673;28;20039;-92
2022/08/30 11:21:53;;;;;;;2.00;0.60;;;30.60;55.10;;;;;;4960565;28;20111;-90
2022/08/30 11:25:10;;;;;;;0.00;0.00;;;30.70;56.90;;;;;;4943642;28;20116;-91
2022/08/30 11:32:42;;;;;;;0.28;0.10;;;30.90;57.00;;;;;;4972685;28;20085;-91
2022/08/30 11:54:09;;;;;;;0.00;0.00;;;31.10;55.50;;;;;;4844970;29;20102;-91
2022/08/30 12:09:23;;;;;;;0.15;0.15;;;31.00;56.40;;;;;;4862204;29;20131;-90
2022/08/30 12:19:58;;;;;;;0.00;0.00;;;30.10;57.90;;;;;;4846665;29;20506;-92
2022/08/30 12:42:45;;;;;;;1.25;1.10;;;29.60;58.20;;;;;;4928657;28;20049;-89
2022/08/30 12:57:50;;;;;;;0.52;0.52;;;28.60;56.80;;;;;;5019292;28;20034;-90
2022/08/30 13:01:10;;;;;;;;;;;;;;;;;;;;;
2022/08/30 13:04:31;;;;;;;0.00;0.00;;;28.40;60.30;;;;;;4989542;28;20026;-91
2022/08/30 13:07:46;;;;;;;0.00;0.00;;;28.60;60.60;;;;;;4960088;28;20164;-92
2022/08/30 13:10:47;;;;;;;0.00;0.00;;;28.40;60.40;;;;;;4981054;28;20062;-89
2022/08/30 13:14:01;;;;;;;0.52;0.52;;;28.30;61.10;;;;;;4983292;28;20018;-92
2022/08/30 13:17:23;;;;;;;0.22;0.10;;;28.20;62.60;;;;;;5025455;28;20042;-92
2022/08/30 13:24:49;;;;;;;;;;;;;;;;;;;;;
2022/08/30 13:28:21;;;;;;;2.70;2.47;;;28.40;62.00;;;;;;4956145;28;20049;-91
2022/08/30 13:34:31;;;;;;;0.82;0.82;;;28.20;63.10;;;;;;4996770;28;20053;-90
2022/08/30 13:37:45;;;;;;;0.00;0.00;;;28.00;62.20;;;;;;4960478;28;20030;-90
2022/08/30 13:40:53;;;;;;;0.00;0.00;;;27.90;63.20;;;;;;4967420;28;20038;-91
2022/08/30 13:44:14;;;;;;;0.00;0.00;;;27.90;62.30;;;;;;4943445;28;20043;-91
2022/08/30 13:47:12;;;;;;;;;;;;;;;;;;;;;
2022/08/30 13:53:12;;;;;;;0.00;0.00;;;27.50;61.80;;;;;;5009223;28;20071;-93
2022/08/30 13:56:16;;;;;;;0.43;0.20;;;27.40;61.90;;;;;;5036789;28;20022;-90
2022/08/30 13:59:16;;;;;;;0.90;0.50;;;27.20;61.30;;;;;;5002716;28;20052;-90
2022/08/30 14:02:06;;;;;;;0.00;0.00;;;27.20;62.40;;;;;;5012505;28;20038;-90
2022/08/30 14:04:46;;;;;;;1.23;0.80;;;27.30;63.30;;;;;;4995312;28;20034;-90
2022/08/30 14:07:34;;;;;;;0.00;0.00;;;27.30;63.10;;;;;;4981884;28;20054;-88
2022/08/30 14:10:22;;;;;;;4.18;1.67;;;27.30;63.20;;;;;;5007692;28;20067;-90
2022/08/30 14:13:15;;;;;;;;;;;;;;;;;;;;;
2022/08/30 14:16:22;;;;;;;0.10;0.10;;;27.40;62.90;;;;;;4959666;28;20038;-91
2022/08/30 14:19:29;;;;;;;0.85;0.60;;;27.50;62.30;;;;;;4943682;28;20064;-88
2022/08/30 14:26:10;;;;;;;0.05;0.05;;;27.40;63.20;;;;;;5012085;28;20082;-91
2022/08/30 14:28:59;;;;;;;0.85;0.22;;;27.20;63.40;;;;;;4992729;28;20456;-91
2022/08/30 14:31:48;;;;;;;0.00;0.00;;;27.40;61.90;;;;;;4990438;28;20034;-89
2022/08/30 14:34:33;;;;;;;0.32;0.13;;;27.50;62.20;;;;;;5039289;28;20029;-90
2022/08/30 14:37:07;;;;;;;1.85;1.13;;;27.60;61.80;;;;;;5034742;28;20469;-91
2022/08/30 14:39:58;;;;;;;0.00;0.00;;;27.40;61.80;;;;;;5049919;28;20071;-91
2022/08/30 14:42:44;;;;;;;0.10;0.10;;;27.40;60.50;;;;;;5021462;28;20005;-89
2022/08/30 14:48:53;;;;;;;0.00;0.00;;;27.50;62.50;;;;;;5037719;28;20494;-90
2022/08/30 14:52:14;;;;;;;0.00;0.00;;;27.40;61.50;;;;;;5031429;28;20021;-90
2022/08/30 14:55:09;;;;;;;0.30;0.10;;;27.40;60.80;;;;;;5034759;28;20017;-90
2022/08/30 14:58:09;;;;;;;0.00;0.00;;;27.20;60.80;;;;;;5014592;28;20406;-90
2022/08/30 15:01:07;;;;;;;0.30;0.25;;;27.10;60.10;;;;;;5031419;28;20163;-91
2022/08/30 15:04:21;;;;;;;0.00;0.00;;;27.10;61.50;;;;;;5031145;28;20129;-90
2022/08/30 15:10:50;;;;;;;0.70;0.47;;;27.10;60.70;;;;;;5056855;22;20241;-75
2022/08/30 15:13:16;;;;;;;0.80;0.65;;;27.00;60.20;;;;;;5071901;28;20118;-76
2022/08/30 15:15:43;;;;;;;0.20;0.20;;;26.90;61.30;;;;;;5071837;28;20361;-76
2022/08/30 15:18:09;;;;;;;0.57;0.47;;;26.80;61.80;;;;;;5072173;28;20027;-76
2022/08/30 15:20:35;;;;;;;0.00;0.00;;;26.70;62.00;;;;;;5053932;28;20033;-76
2022/08/30 15:23:01;;;;;;;0.15;0.15;;;26.80;62.10;;;;;;5071889;28;20376;-76
2022/08/30 15:25:27;;;;;;;0.00;0.00;;;26.70;61.90;;;;;;5053630;28;20025;-76
2022/08/30 15:27:52;;;;;;;0.20;0.20;;;26.70;62.00;;;;;;5071893;28;20028;-75
2022/08/30 15:30:18;;;;;;;0.00;0.00;;;26.80;63.40;;;;;;5054021;28;20066;-76
2022/08/30 15:32:44;;;;;;;0.00;0.00;;;26.90;63.50;;;;;;5072758;28;20028;-75
2022/08/30 15:35:10;;;;;;;0.38;0.38;;;27.00;63.60;;;;;;5054151;28;20104;-76
2022/08/30 15:37:37;;;;;;;0.00;0.00;;;26.80;63.40;;;;;;5069547;28;20071;-76
2022/08/30 15:40:04;;;;;;;0.00;0.00;;;26.70;63.70;;;;;;5092283;28;20068;-76
2022/08/30 15:42:30;;;;;;;0.00;0.00;;;26.70;63.60;;;;;;5096065;28;20436;-76
2022/08/30 15:44:56;;;;;;;0.00;0.00;;;26.70;63.40;;;;;;5095861;28;20103;-76
2022/08/30 15:47:22;;;;;;;1.45;0.95;;;26.60;63.90;;;;;;5077839;28;20056;-76
2022/08/30 15:49:56;;;;;;;0.45;0.45;;;26.50;63.90;;;;;;5095790;28;20023;-76